Polacca, AZ

2:25 PM MST on September 22, 2014 (GMT -0700)
Winslow-Lindbergh Regional | Change Station
CLOSE
Current Station
Airport
Location: Winslow,
Elevation: 4882 ft
Nearby Weather Stations

Elev 4882 ft 35.03 °N, 110.72 °W | Updated 29 minutes ago

Clear
Clear
87 °F
Feels Like 87 °F
N
8
Wind Variable Wind from West

Today
High -- | Low -- °F
--% Chance of Precip.
Yesterday
High -- | Low -- °F
Precip. -- in
6:09 AM 6:18 PM
Waning Crescent, 2% visible
Pressure 29.94 in
Visibility 10.0 miles
Clouds Few 7500 ft
Dew Point 49 °F
Humidity 27%
Rainfall 0.00 in
Snow Depth 1 in
UV 7 out of 12
Pollen 6.30 out of 12
Air Quality Not available.
Flu Activity Not available.
METAR KINW 222056Z AUTO 28007KT 10SM FEW075 31/09 A3016 RMK AO2 SLP136 T03060094 58023

More Conditions Fewer Conditions

Pressure 29.94 in
Visibility 10.0 miles
Clouds Few 7500 ft
Dew Point 49 °F
Humidity 27%
Rainfall 0.00 in
Snow Depth 1 in
UV 7 out of 12
Pollen 6.30 out of 12
Air Quality Not available.
Flu Activity Not available.
METAR KINW 222056Z AUTO 28007KT 10SM FEW075 31/09 A3016 RMK AO2 SLP136 T03060094 58023

More Conditions Fewer Conditions

10-Day Weather Forecast

Almanac

Astronomy

Sep. 22, 2014 Rise Set
Actual Time 6:09 AM MST 6:18 PM MST
Civil Twilight 5:43 AM MST 6:43 PM MST
Nautical Twilight 5:14 AM MST 7:13 PM MST
Astronomical Twilight 4:43 AM MST 7:43 PM MST
Moon 4:43 AM MST 5:26 PM MST
Length of Visible Light 12h 59m
Length of Day
12h 08m
Tomorrow will be 2m 14s shorter.
Waning Crescent, 2% of the Moon is Illuminated
Today
Waning Crescent
Sep 24
New
Oct 1
First Quarter
Oct 8
Full
Oct 15
Last Quarter

Today's Extremes

State Highs State Lows

Community

WunderPhotos

Upload Photos

1,755,536 photos uploaded!

Nearby

Snow Depth

Station Depth Elevation
Workman Creek 1 in 6900 ft

Earthquake Activity

City Distance Mag. Time & Date
No recent earthquake activity has been reported nearby.
Minimum magnitude displayed is 2.5.

Coastal Water Temperatures

Place Temperature
No Stations Reporting

Nearby Weather Stations